Time;durP1;ratioP1;P1;durP2;ratioP2;P2;SDS_P1;SDS_P2;PMS_P1;PMS_P2;Temp;Humidity;BMP_temperature;BMP_pressure;BME280_temperature;BME280_humidity;BME280_pressure;Samples;Min_cycle;Max_cycle;Signal;HPM_P1;HPM_P2
2022/08/24 00:02:27;;;;;;;8.25;4.18;;;20.00;1.00;;;;;;7366626;19;20110;-65
2022/08/24 00:05:00;;;;;;;6.43;4.07;;;19.90;1.00;;;;;;7364852;19;20019;-67
2022/08/24 00:07:30;;;;;;;10.63;4.22;;;19.80;1.00;;;;;;7386296;19;20021;-65
2022/08/24 00:10:00;;;;;;;6.80;3.78;;;19.70;1.00;;;;;;7359446;19;20198;-65
2022/08/24 00:12:31;;;;;;;4.90;3.90;;;19.80;1.00;;;;;;7367504;19;20060;-66
2022/08/24 00:15:01;;;;;;;5.25;4.35;;;19.90;1.00;;;;;;7365737;19;20011;-65
2022/08/24 00:17:31;;;;;;;8.48;4.38;;;19.90;1.00;;;;;;7365044;19;20010;-67
2022/08/24 00:20:05;;;;;;;8.70;4.65;;;19.90;1.00;;;;;;7360802;19;20022;-66
2022/08/24 00:22:35;;;;;;;7.17;4.63;;;19.90;1.00;;;;;;7387247;19;20065;-66
2022/08/24 00:25:05;;;;;;;7.78;5.18;;;20.00;1.00;;;;;;7365015;19;20837;-67
2022/08/24 00:27:35;;;;;;;7.53;4.90;;;20.00;1.00;;;;;;7366083;19;20019;-67
2022/08/24 00:30:07;;;;;;;7.35;4.40;;;20.00;1.00;;;;;;7359703;19;20004;-66
2022/08/24 00:32:38;;;;;;;8.52;4.72;;;19.80;1.00;;;;;;7365686;19;20423;-66
2022/08/24 00:35:11;;;;;;;6.45;4.15;;;19.70;1.00;;;;;;7365557;19;20015;-66
2022/08/24 00:37:42;;;;;;;6.50;4.50;;;19.70;1.00;;;;;;7386256;19;20017;-66
2022/08/24 00:40:16;;;;;;;10.57;4.65;;;19.50;1.00;;;;;;7360807;19;20018;-66
2022/08/24 00:42:47;;;;;;;4.32;3.92;;;19.40;1.00;;;;;;7365280;19;20010;-67
2022/08/24 00:45:18;;;;;;;5.32;3.85;;;19.30;1.00;;;;;;7363063;19;20111;-66
2022/08/24 00:47:51;;;;;;;4.80;4.30;;;19.20;1.00;;;;;;7363905;19;20048;-66
2022/08/24 00:50:27;;;;;;;6.93;4.22;;;19.20;1.00;;;;;;7362412;19;20843;-66
2022/08/24 00:53:01;;;;;;;6.65;4.55;;;19.30;1.00;;;;;;7364776;19;20086;-67
2022/08/24 00:55:34;;;;;;;;;;;19.40;1.00;;;;;;7387669;19;20012;-66
2022/08/24 00:58:07;;;;;;;5.38;4.03;;;19.40;1.00;;;;;;7361978;19;20184;-67
2022/08/24 01:00:47;;;;;;;9.02;5.13;;;19.40;1.00;;;;;;7360683;19;20510;-67
2022/08/24 01:03:18;;;;;;;9.07;4.70;;;19.40;1.00;;;;;;7362676;19;20007;-66
2022/08/24 01:05:51;;;;;;;7.07;5.10;;;19.40;1.00;;;;;;7363038;19;20018;-67
2022/08/24 01:08:22;;;;;;;8.98;4.95;;;19.40;1.00;;;;;;7362996;19;20017;-67
2022/08/24 01:10:56;;;;;;;7.65;4.93;;;19.30;1.00;;;;;;7361319;19;20466;-67
2022/08/24 01:13:26;;;;;;;;;;;19.40;1.00;;;;;;7385985;19;20011;-67
2022/08/24 01:16:00;;;;;;;7.00;5.35;;;19.50;1.00;;;;;;7363222;19;19915;-67
2022/08/24 01:21:19;;;;;;;6.53;5.10;;;19.50;1.00;;;;;;7361213;19;20026;-66
2022/08/24 01:23:54;;;;;;;6.70;5.38;;;19.50;1.00;;;;;;7363913;19;20011;-66
2022/08/24 01:26:27;;;;;;;7.22;5.22;;;19.50;1.00;;;;;;7363527;19;20029;-66
2022/08/24 01:29:03;;;;;;;8.93;5.10;;;19.50;1.00;;;;;;7362793;19;20014;-66
2022/08/24 01:31:34;;;;;;;7.03;4.80;;;19.40;1.00;;;;;;7382218;19;20014;-67
2022/08/24 01:34:05;;;;;;;5.95;4.30;;;19.40;1.00;;;;;;7362997;19;20631;-66
2022/08/24 01:36:39;;;;;;;4.43;3.95;;;19.40;1.00;;;;;;7361919;19;20509;-66
2022/08/24 01:39:15;;;;;;;7.53;3.70;;;19.30;1.00;;;;;;7362395;19;20002;-66
2022/08/24 01:41:45;;;;;;;6.13;3.97;;;19.30;1.00;;;;;;7360679;19;20498;-67
2022/08/24 01:44:16;;;;;;;6.90;4.18;;;19.20;1.00;;;;;;7362337;19;20039;-67
2022/08/24 01:46:47;;;;;;;5.50;3.58;;;19.20;1.00;;;;;;7362501;19;20014;-67
2022/08/24 01:49:18;;;;;;;6.00;3.70;;;19.10;1.00;;;;;;7383959;19;20006;-67
2022/08/24 01:51:48;;;;;;;3.88;3.45;;;19.10;1.00;;;;;;7360470;19;20015;-67
2022/08/24 01:54:21;;;;;;;5.82;4.03;;;19.10;1.00;;;;;;7362268;19;20101;-67
2022/08/24 01:56:50;;;;;;;4.28;3.72;;;19.10;1.00;;;;;;7361935;19;20021;-67
2022/08/24 01:59:24;;;;;;;5.45;3.88;;;19.10;1.00;;;;;;7360614;19;20013;-67
2022/08/24 02:01:58;;;;;;;4.40;3.83;;;19.10;1.00;;;;;;7359790;19;20030;-67
2022/08/24 02:04:28;;;;;;;5.40;3.90;;;19.00;1.00;;;;;;7382904;19;20006;-67
2022/08/24 02:06:58;;;;;;;6.50;3.97;;;18.90;1.00;;;;;;7361238;19;20017;-67
2022/08/24 02:09:30;;;;;;;5.03;4.00;;;18.80;1.00;;;;;;7361990;19;20003;-66
2022/08/24 02:12:01;;;;;;;6.55;4.20;;;18.70;1.00;;;;;;7360373;19;20011;-67
2022/08/24 02:14:31;;;;;;;5.32;4.13;;;18.70;1.00;;;;;;7360679;19;20013;-67
2022/08/24 02:17:03;;;;;;;7.35;4.38;;;18.60;1.00;;;;;;7361957;19;20087;-67
2022/08/24 02:19:33;;;;;;;4.40;4.00;;;18.60;1.00;;;;;;7382180;19;20021;-67
2022/08/24 02:22:04;;;;;;;5.88;4.28;;;18.60;1.00;;;;;;7360090;19;20023;-67
2022/08/24 02:24:37;;;;;;;5.55;4.03;;;18.50;1.00;;;;;;7360113;19;20018;-67
2022/08/24 02:27:07;;;;;;;6.78;4.20;;;18.60;1.00;;;;;;7362287;19;20134;-66
2022/08/24 02:29:37;;;;;;;5.35;4.22;;;18.60;1.00;;;;;;7361286;19;20043;-65
2022/08/24 02:32:07;;;;;;;6.40;5.03;;;18.50;1.00;;;;;;7358721;19;20015;-65
2022/08/24 02:34:37;;;;;;;7.43;4.47;;;18.50;1.00;;;;;;7381706;19;20029;-66
2022/08/24 02:37:07;;;;;;;5.40;4.63;;;18.40;1.00;;;;;;7361369;19;20022;-65
2022/08/24 02:39:40;;;;;;;4.45;4.05;;;18.20;1.00;;;;;;7360871;19;20101;-66
2022/08/24 02:42:10;;;;;;;5.57;4.40;;;18.10;1.00;;;;;;7359757;19;20022;-66
2022/08/24 02:44:40;;;;;;;7.20;5.10;;;18.10;1.00;;;;;;7360422;19;20006;-66
2022/08/24 02:47:10;;;;;;;8.70;4.50;;;18.20;1.00;;;;;;7361302;19;20014;-67
2022/08/24 02:49:40;;;;;;;4.50;4.05;;;18.10;1.00;;;;;;7382627;19;20385;-67
2022/08/24 02:52:10;;;;;;;5.97;4.22;;;18.00;1.00;;;;;;7361087;19;20018;-67
2022/08/24 02:54:42;;;;;;;5.63;4.55;;;18.10;1.00;;;;;;7359241;19;20158;-66
2022/08/24 02:57:12;;;;;;;5.22;4.72;;;18.10;1.00;;;;;;7360093;19;20596;-65
2022/08/24 02:59:42;;;;;;;6.70;4.90;;;18.10;1.00;;;;;;7359749;19;20017;-65
2022/08/24 03:02:11;;;;;;;5.32;4.65;;;18.00;1.00;;;;;;7360751;19;20024;-66
2022/08/24 03:04:42;;;;;;;6.13;4.90;;;17.80;1.00;;;;;;7380603;19;20014;-66
2022/08/24 03:07:17;;;;;;;11.63;5.30;;;17.80;1.00;;;;;;7359188;19;20022;-65
2022/08/24 03:09:50;;;;;;;7.63;4.90;;;17.80;1.00;;;;;;7357277;19;20085;-67
2022/08/24 03:12:20;;;;;;;7.30;5.10;;;17.80;1.00;;;;;;7361600;19;20097;-66
2022/08/24 03:14:49;;;;;;;6.25;5.55;;;17.80;1.00;;;;;;7359693;19;20313;-66
2022/08/24 03:17:19;;;;;;;5.97;5.30;;;17.80;1.00;;;;;;7360095;19;20021;-65
2022/08/24 03:19:49;;;;;;;8.77;5.10;;;17.80;1.00;;;;;;7354981;19;20094;-66
2022/08/24 03:22:19;;;;;;;6.75;5.20;;;17.90;1.00;;;;;;7383045;19;20022;-66
2022/08/24 03:24:51;;;;;;;8.07;4.93;;;17.80;1.00;;;;;;7358965;19;20014;-65
2022/08/24 03:27:21;;;;;;;6.53;4.72;;;17.70;1.00;;;;;;7360069;19;20010;-66
2022/08/24 03:29:51;;;;;;;7.80;5.10;;;17.70;1.00;;;;;;7355731;19;20401;-65
2022/08/24 03:32:21;;;;;;;5.75;4.15;;;17.60;1.00;;;;;;7361865;19;20086;-65
2022/08/24 03:34:51;;;;;;;6.10;4.75;;;17.60;1.00;;;;;;7358540;19;20020;-65
2022/08/24 03:37:21;;;;;;;7.40;4.22;;;17.60;1.00;;;;;;7382077;19;20110;-65
2022/08/24 03:39:53;;;;;;;6.85;4.80;;;17.70;1.00;;;;;;7354957;19;20084;-65
2022/08/24 03:42:23;;;;;;;7.72;4.70;;;17.60;1.00;;;;;;7359962;19;20085;-65
2022/08/24 03:44:53;;;;;;;6.93;5.05;;;17.60;1.00;;;;;;7358467;19;20010;-65
2022/08/24 03:47:23;;;;;;;6.03;4.72;;;17.70;1.00;;;;;;7360130;19;20085;-66
2022/08/24 03:49:55;;;;;;;6.82;5.80;;;17.50;1.00;;;;;;7353666;19;20083;-66
2022/08/24 03:52:25;;;;;;;6.10;5.18;;;17.50;1.00;;;;;;7381555;19;20342;-66
2022/08/24 03:55:01;;;;;;;6.75;5.82;;;17.60;1.00;;;;;;7357678;19;20017;-65
2022/08/24 03:57:31;;;;;;;8.98;5.40;;;17.70;1.00;;;;;;7358518;19;20486;-65
2022/08/24 04:00:00;;;;;;;11.10;6.13;;;17.60;1.00;;;;;;7352467;19;20499;-66
2022/08/24 04:02:30;;;;;;;6.35;5.75;;;17.70;1.00;;;;;;7361630;19;20013;-66
2022/08/24 04:05:02;;;;;;;8.13;5.90;;;17.70;1.00;;;;;;7358923;19;20024;-65
2022/08/24 04:07:32;;;;;;;7.03;6.20;;;17.70;1.00;;;;;;7380619;19;20007;-65
2022/08/24 04:10:05;;;;;;;11.20;6.18;;;17.60;1.00;;;;;;7352458;19;20142;-66
2022/08/24 04:12:35;;;;;;;9.15;5.95;;;17.60;1.00;;;;;;7359560;19;20093;-65
2022/08/24 04:15:06;;;;;;;7.90;5.95;;;17.60;1.00;;;;;;7358913;19;20006;-66
2022/08/24 04:17:36;;;;;;;6.85;6.07;;;17.50;1.00;;;;;;7359340;19;20061;-66
2022/08/24 04:20:07;;;;;;;8.05;6.25;;;17.50;1.00;;;;;;7356333;19;21120;-66
2022/08/24 04:22:37;;;;;;;12.90;7.85;;;17.40;1.00;;;;;;7389708;19;20025;-66
2022/08/24 04:25:12;;;;;;;10.32;6.80;;;17.50;1.00;;;;;;7364879;19;20024;-65
2022/08/24 04:27:42;;;;;;;9.40;7.35;;;17.50;1.00;;;;;;7365735;19;20014;-66
2022/08/24 04:30:14;;;;;;;10.82;7.40;;;17.50;1.00;;;;;;7360426;19;20082;-66
2022/08/24 04:32:44;;;;;;;13.07;8.13;;;17.50;1.00;;;;;;7366994;19;20015;-66
2022/08/24 04:35:14;;;;;;;13.68;8.20;;;17.50;1.00;;;;;;7365520;19;20015;-66
2022/08/24 04:37:44;;;;;;;14.52;8.38;;;17.60;1.00;;;;;;7365058;19;20034;-66
2022/08/24 04:40:16;;;;;;;12.55;8.20;;;17.60;1.00;;;;;;7380005;19;20407;-66
2022/08/24 04:42:48;;;;;;;8.52;7.60;;;17.70;1.00;;;;;;7365157;19;20802;-66
2022/08/24 04:45:18;;;;;;;11.60;7.20;;;17.60;1.00;;;;;;7364258;19;20031;-66
2022/08/24 04:47:48;;;;;;;9.95;7.13;;;17.70;1.00;;;;;;7364060;19;20105;-64
2022/08/24 04:50:18;;;;;;;9.73;7.57;;;18.00;1.00;;;;;;7360964;19;20118;-66
2022/08/24 04:52:48;;;;;;;14.63;7.55;;;18.50;1.00;;;;;;7366911;19;20850;-66
2022/08/24 04:55:21;;;;;;;10.50;7.00;;;19.30;1.00;;;;;;7385656;19;20025;-65
2022/08/24 04:57:50;;;;;;;12.55;6.93;;;19.50;1.00;;;;;;7362343;19;20018;-65
2022/08/24 05:00:22;;;;;;;10.82;6.80;;;19.70;1.00;;;;;;7360342;19;20082;-66
2022/08/24 05:02:52;;;;;;;11.13;6.80;;;19.60;1.00;;;;;;7364724;19;20007;-66
2022/08/24 05:05:22;;;;;;;10.27;6.80;;;19.90;1.00;;;;;;7363861;19;20094;-66
2022/08/24 05:07:52;;;;;;;10.52;6.85;;;20.00;1.00;;;;;;7360452;19;20509;-66
2022/08/24 05:10:28;;;;;;;9.90;6.10;;;19.90;1.00;;;;;;7382264;19;20016;-66
2022/08/24 05:13:02;;;;;;;10.02;6.63;;;20.70;1.00;;;;;;7364040;19;20106;-66
2022/08/24 05:15:32;;;;;;;8.02;6.22;;;21.10;1.00;;;;;;7362808;19;20018;-66
2022/08/24 05:18:03;;;;;;;8.27;6.80;;;21.20;1.00;;;;;;7362941;19;20021;-66
2022/08/24 05:20:34;;;;;;;9.63;7.85;;;21.50;1.00;;;;;;7359904;19;20022;-65
2022/08/24 05:23:04;;;;;;;10.90;6.93;;;21.80;1.00;;;;;;7364825;19;20386;-66
2022/08/24 05:25:37;;;;;;;10.18;6.53;;;21.50;1.00;;;;;;7384277;19;20003;-65
2022/08/24 05:28:07;;;;;;;7.55;6.70;;;21.20;1.00;;;;;;7363031;19;20011;-66
2022/08/24 05:30:37;;;;;;;8.95;6.55;;;21.40;1.00;;;;;;7359855;19;20018;-65
2022/08/24 05:33:11;;;;;;;9.02;6.60;;;22.60;1.00;;;;;;7363303;19;20036;-66
2022/08/24 05:35:42;;;;;;;9.98;6.70;;;23.40;1.00;;;;;;7362690;19;20087;-66
2022/08/24 05:38:13;;;;;;;11.40;6.50;;;23.00;1.00;;;;;;7362867;19;20010;-65
2022/08/24 05:40:45;;;;;;;7.47;5.85;;;22.70;1.00;;;;;;7367202;19;20089;-65
2022/08/24 05:43:15;;;;;;;10.82;6.57;;;21.90;1.00;;;;;;7385395;19;20013;-66
2022/08/24 05:45:45;;;;;;;12.52;6.20;;;20.70;1.00;;;;;;7359421;19;20014;-66
2022/08/24 05:48:16;;;;;;;14.75;7.18;;;19.90;1.00;;;;;;7362288;19;20034;-66
2022/08/24 05:50:46;;;;;;;10.82;6.95;;;19.90;1.00;;;;;;7359980;19;20010;-65
2022/08/24 05:53:15;;;;;;;10.75;6.43;;;19.80;1.00;;;;;;7363245;19;20016;-66
2022/08/24 05:55:48;;;;;;;9.73;6.53;;;19.60;1.00;;;;;;7360745;19;20010;-65
2022/08/24 05:58:20;;;;;;;10.35;6.93;;;19.70;1.00;;;;;;7383530;19;20032;-66
2022/08/24 06:01:00;;;;;;;10.95;6.82;;;19.90;1.00;;;;;;7357414;19;20007;-66
2022/08/24 06:03:30;;;;;;;11.60;5.97;;;19.90;1.00;;;;;;7363236;19;20006;-66
2022/08/24 06:06:00;;;;;;;10.13;6.53;;;20.00;1.00;;;;;;7361654;19;20077;-66
2022/08/24 06:08:30;;;;;;;7.63;6.60;;;20.20;1.00;;;;;;7360297;19;20082;-66
2022/08/24 06:11:03;;;;;;;10.18;6.43;;;20.00;1.00;;;;;;7358217;19;20026;-66
2022/08/24 06:13:33;;;;;;;7.88;6.32;;;20.40;1.00;;;;;;7383759;19;20029;-65
2022/08/24 06:16:05;;;;;;;7.85;6.25;;;20.20;1.00;;;;;;7360802;19;20082;-65
2022/08/24 06:18:51;;;;;;;10.95;6.57;;;20.40;1.00;;;;;;7361353;19;20011;-66
2022/08/24 06:21:23;;;;;;;9.02;6.43;;;20.40;1.00;;;;;;7358990;19;20065;-65
2022/08/24 06:23:53;;;;;;;7.68;6.03;;;20.60;1.00;;;;;;7360978;19;20788;-66
2022/08/24 06:29:09;;;;;;;16.92;6.30;;;20.50;1.00;;;;;;7361212;19;20489;-67
2022/08/24 06:31:40;;;;;;;10.25;6.05;;;20.70;1.00;;;;;;7379721;19;20025;-66
2022/08/24 06:34:13;;;;;;;9.95;5.53;;;20.80;1.00;;;;;;7360701;19;20023;-65
2022/08/24 06:36:43;;;;;;;11.25;5.60;;;20.60;1.00;;;;;;7359634;19;20018;-67
2022/08/24 06:39:15;;;;;;;6.43;5.30;;;20.70;1.00;;;;;;7361431;19;20374;-66
2022/08/24 06:41:48;;;;;;;8.77;5.03;;;20.90;1.00;;;;;;7354818;19;20515;-67
2022/08/24 06:44:18;;;;;;;8.07;5.53;;;21.10;1.00;;;;;;7360981;19;20548;-66
2022/08/24 06:46:48;;;;;;;7.55;5.20;;;21.30;1.00;;;;;;7358982;19;20585;-65
2022/08/24 06:49:18;;;;;;;10.07;4.80;;;21.30;1.00;;;;;;7381570;19;20087;-66
2022/08/24 06:51:48;;;;;;;7.80;4.88;;;21.20;1.00;;;;;;7357774;19;20082;-66
2022/08/24 06:54:20;;;;;;;7.40;4.50;;;21.10;1.00;;;;;;7360557;19;20007;-66
2022/08/24 06:56:54;;;;;;;9.63;5.05;;;21.40;1.00;;;;;;7360507;19;20015;-65
2022/08/24 06:59:25;;;;;;;8.13;4.60;;;21.50;1.00;;;;;;7359169;19;20798;-66
2022/08/24 07:01:55;;;;;;;6.20;4.65;;;21.60;1.00;;;;;;7356421;19;20014;-66
2022/08/24 07:04:27;;;;;;;5.90;4.43;;;21.70;1.00;;;;;;7382470;19;20575;-66
2022/08/24 07:06:57;;;;;;;18.45;13.23;;;21.90;1.00;;;;;;7359945;19;20022;-66
2022/08/24 07:09:28;;;;;;;6.90;4.68;;;22.10;1.00;;;;;;7359175;19;20010;-66
2022/08/24 07:12:01;;;;;;;8.00;4.20;;;22.40;1.00;;;;;;7357219;19;20014;-66
2022/08/24 07:14:31;;;;;;;5.32;4.18;;;22.40;1.00;;;;;;7358732;19;20094;-66
2022/08/24 07:17:01;;;;;;;4.07;3.60;;;22.30;1.00;;;;;;7358379;19;20285;-66
2022/08/24 07:19:30;;;;;;;6.07;4.30;;;22.60;1.00;;;;;;7381585;19;20029;-66
2022/08/24 07:22:01;;;;;;;5.40;3.60;;;22.80;1.00;;;;;;7354663;19;20011;-66
2022/08/24 07:24:31;;;;;;;4.53;3.50;;;23.00;1.00;;;;;;7357591;19;20413;-66
2022/08/24 07:27:03;;;;;;;7.63;3.50;;;23.00;1.00;;;;;;7361058;19;20486;-66
2022/08/24 07:29:34;;;;;;;3.95;3.30;;;23.00;1.00;;;;;;7359397;19;20078;-66
2022/08/24 07:32:23;;;;;;;6.50;3.40;;;23.00;1.00;;;;;;7361197;19;20021;-66
2022/08/24 07:34:53;;;;;;;5.28;3.35;;;23.40;1.00;;;;;;7357691;19;20018;-66
2022/08/24 07:37:23;;;;;;;5.65;3.67;;;23.30;1.00;;;;;;7380994;19;20014;-66
2022/08/24 07:39:53;;;;;;;6.40;3.65;;;23.30;1.00;;;;;;7353560;19;20122;-65
2022/08/24 07:42:26;;;;;;;6.80;3.35;;;23.00;1.00;;;;;;7360665;19;20011;-65
2022/08/24 07:45:00;;;;;;;8.75;3.53;;;23.40;1.00;;;;;;7357857;19;20489;-65
2022/08/24 07:47:30;;;;;;;5.10;3.47;;;23.40;1.00;;;;;;7357368;19;20585;-65
2022/08/24 07:50:10;;;;;;;3.63;3.10;;;23.40;1.00;;;;;;7355568;19;20723;-66
2022/08/24 07:52:43;;;;;;;5.85;3.30;;;23.20;1.00;;;;;;7370171;19;20014;-67
2022/08/24 07:55:14;;;;;;;6.95;3.25;;;23.30;1.00;;;;;;7386368;19;20427;-66
2022/08/24 07:57:47;;;;;;;6.97;3.13;;;23.10;1.00;;;;;;7365246;19;20073;-65
2022/08/24 08:00:19;;;;;;;4.68;2.90;;;23.50;1.00;;;;;;7358480;19;20082;-65
2022/08/24 08:02:50;;;;;;;10.05;2.58;;;23.70;1.00;;;;;;7367643;19;20006;-66
2022/08/24 08:05:23;;;;;;;6.00;2.88;;;24.10;1.00;;;;;;7366530;19;20152;-66
2022/08/24 08:07:53;;;;;;;6.03;2.53;;;24.20;1.00;;;;;;7363930;19;20010;-66
2022/08/24 08:10:24;;;;;;;6.55;2.65;;;23.80;1.00;;;;;;7380646;19;20021;-66
2022/08/24 08:12:56;;;;;;;4.32;2.53;;;24.30;1.00;;;;;;7366181;19;20461;-66
2022/08/24 08:15:27;;;;;;;3.83;2.70;;;24.50;1.00;;;;;;7365632;19;20014;-66
2022/08/24 08:17:57;;;;;;;6.65;2.40;;;24.10;1.00;;;;;;7367490;19;20006;-65
2022/08/24 08:20:27;;;;;;;4.18;2.50;;;23.70;1.00;;;;;;7357476;19;20007;-65
2022/08/24 08:25:39;;;;;;;3.65;2.45;;;24.60;1.00;;;;;;7385270;19;20073;-65
2022/08/24 08:28:17;;;;;;;4.10;2.40;;;24.60;1.00;;;;;;7365283;19;20018;-64
2022/08/24 08:31:02;;;;;;;4.57;2.28;;;24.50;1.00;;;;;;7356983;19;21029;-64
2022/08/24 08:33:34;;;;;;;2.33;1.98;;;24.70;1.00;;;;;;7364275;19;20616;-64
2022/08/24 08:36:08;;;;;;;5.18;2.33;;;24.70;1.00;;;;;;7363299;19;20014;-64
2022/08/24 08:38:41;;;;;;;6.15;2.22;;;24.70;1.00;;;;;;7364697;19;20006;-65
2022/08/24 08:41:41;;;;;;;3.70;2.03;;;24.70;1.00;;;;;;7356993;19;20104;-66
2022/08/24 08:44:17;;;;;;;2.30;2.10;;;25.00;1.00;;;;;;7364972;19;20003;-65
2022/08/24 08:46:58;;;;;;;3.22;1.98;;;25.10;1.00;;;;;;7362082;19;20026;-64
2022/08/24 08:49:44;;;;;;;4.25;2.03;;;25.10;1.00;;;;;;7385301;19;20053;-65
2022/08/24 08:52:39;;;;;;;2.65;1.95;;;25.10;1.00;;;;;;7363877;19;20042;-64
2022/08/24 08:55:23;;;;;;;2.20;1.77;;;25.40;1.00;;;;;;7364536;19;20102;-65
2022/08/24 08:58:07;;;;;;;3.70;1.67;;;25.50;1.00;;;;;;7364980;19;20046;-64
2022/08/24 09:00:54;;;;;;;2.65;1.70;;;25.60;1.00;;;;;;7357656;19;20467;-66
2022/08/24 09:03:53;;;;;;;3.33;1.77;;;25.60;1.00;;;;;;7365723;19;20091;-64
2022/08/24 09:06:42;;;;;;;4.28;2.08;;;25.50;1.00;;;;;;7360126;19;20010;-65
2022/08/24 09:09:35;;;;;;;3.55;1.85;;;25.50;1.00;;;;;;7364635;19;20017;-66
2022/08/24 09:12:16;;;;;;;2.47;1.95;;;25.60;1.00;;;;;;7361119;19;20010;-65
2022/08/24 09:15:04;;;;;;;2.58;2.10;;;25.50;1.00;;;;;;7364812;19;20014;-64
2022/08/24 09:17:48;;;;;;;3.08;1.95;;;25.90;1.00;;;;;;7364022;19;20014;-64
2022/08/24 09:20:28;;;;;;;1.80;1.45;;;26.00;1.00;;;;;;7356572;19;20011;-65
2022/08/24 09:23:10;;;;;;;2.97;1.55;;;26.00;1.00;;;;;;7361077;19;20015;-66
2022/08/24 09:25:52;;;;;;;5.10;1.70;;;26.30;1.00;;;;;;7385041;19;20429;-65
2022/08/24 09:28:46;;;;;;;3.78;1.88;;;26.30;1.00;;;;;;7363728;19;20062;-64
2022/08/24 09:31:29;;;;;;;;;;;26.40;1.00;;;;;;7354436;19;20010;-65
2022/08/24 09:34:35;;;;;;;3.72;1.80;;;26.60;1.00;;;;;;7364547;19;19911;-64
2022/08/24 09:37:41;;;;;;;2.22;1.90;;;26.50;1.00;;;;;;7361376;19;20483;-64
2022/08/24 09:40:30;;;;;;;3.65;2.10;;;26.80;1.00;;;;;;7356230;19;20006;-65
2022/08/24 09:43:50;;;;;;;4.55;1.85;;;27.00;1.00;;;;;;7361911;19;20117;-65
2022/08/24 09:46:48;;;;;;;4.38;1.80;;;27.10;1.00;;;;;;7360753;19;20018;-65
2022/08/24 09:49:52;;;;;;;3.75;2.10;;;27.20;1.00;;;;;;7363408;19;20796;-65
2022/08/24 09:52:51;;;;;;;3.38;2.08;;;27.00;1.00;;;;;;7363499;19;20030;-65
2022/08/24 09:55:50;;;;;;;4.85;1.92;;;26.70;1.00;;;;;;7362450;19;20047;-65
2022/08/24 09:58:31;;;;;;;2.88;1.80;;;26.80;1.00;;;;;;7363654;19;20384;-64
2022/08/24 10:01:11;;;;;;;3.33;1.83;;;27.10;1.00;;;;;;7354407;19;20336;-65
2022/08/24 10:04:02;;;;;;;2.47;1.52;;;27.50;1.00;;;;;;7361278;19;20011;-64
2022/08/24 10:06:47;;;;;;;3.15;1.65;;;27.70;1.00;;;;;;7359503;19;20078;-66
2022/08/24 10:09:40;;;;;;;2.60;2.08;;;27.50;1.00;;;;;;7362000;19;20370;-66
2022/08/24 10:12:21;;;;;;;2.97;1.88;;;27.40;1.00;;;;;;7360727;19;20017;-66
2022/08/24 10:14:59;;;;;;;2.05;1.80;;;27.60;1.00;;;;;;7362301;19;20017;-65
2022/08/24 10:17:42;;;;;;;4.72;1.90;;;27.90;1.00;;;;;;7359283;19;20061;-64
2022/08/24 10:20:23;;;;;;;2.15;1.75;;;27.60;1.00;;;;;;7355030;19;20010;-66
2022/08/24 10:23:15;;;;;;;3.38;2.10;;;27.60;1.00;;;;;;7361598;19;20025;-65
2022/08/24 10:25:53;;;;;;;2.70;1.75;;;27.50;1.00;;;;;;7361080;19;20021;-65
2022/08/24 10:28:42;;;;;;;3.55;1.75;;;27.70;1.00;;;;;;7384579;19;20074;-65
2022/08/24 10:31:14;;;;;;;2.30;1.67;;;28.00;1.00;;;;;;7354729;19;20034;-64
2022/08/24 10:34:00;;;;;;;3.97;1.73;;;28.20;1.00;;;;;;7361501;19;20006;-64
2022/08/24 10:36:56;;;;;;;3.80;1.80;;;28.30;1.00;;;;;;7359958;19;20011;-65
2022/08/24 10:39:53;;;;;;;1.92;1.50;;;28.30;1.00;;;;;;7362027;19;20782;-65
2022/08/24 10:46:06;;;;;;;4.45;1.67;;;28.20;1.00;;;;;;7360886;19;20007;-65
2022/08/24 10:49:19;;;;;;;1.98;1.77;;;27.90;1.00;;;;;;7363050;19;20014;-66
2022/08/24 10:52:06;;;;;;;3.97;1.70;;;28.00;1.00;;;;;;7355937;19;20018;-65
2022/08/24 10:54:40;;;;;;;4.00;1.65;;;28.20;1.00;;;;;;7362011;19;20006;-65
2022/08/24 10:57:21;;;;;;;2.58;1.63;;;28.00;1.00;;;;;;7361671;19;20011;-65
2022/08/24 10:59:58;;;;;;;3.58;1.80;;;28.10;1.00;;;;;;7359480;19;20007;-64
2022/08/24 11:02:33;;;;;;;3.15;1.67;;;28.10;1.00;;;;;;7362386;19;20017;-66
2022/08/24 11:05:09;;;;;;;3.47;1.80;;;27.90;1.00;;;;;;7360538;19;20003;-65
2022/08/24 11:07:56;;;;;;;1.98;1.77;;;28.00;1.00;;;;;;7382388;19;20017;-64
2022/08/24 11:10:31;;;;;;;2.33;1.70;;;28.00;1.00;;;;;;7357203;19;20031;-66
2022/08/24 11:13:23;;;;;;;3.78;1.80;;;28.40;1.00;;;;;;7360876;19;20013;-65
2022/08/24 11:15:55;;;;;;;1.63;1.50;;;28.70;1.00;;;;;;7360426;19;20483;-65
2022/08/24 11:18:25;;;;;;;2.53;1.50;;;28.80;1.00;;;;;;7361300;19;20011;-66
2022/08/24 11:20:59;;;;;;;1.90;1.40;;;28.70;1.00;;;;;;7354509;19;20040;-65
2022/08/24 11:23:36;;;;;;;;;;;28.40;1.00;;;;;;7358331;19;20098;-65
2022/08/24 11:26:14;;;;;;;2.13;1.50;;;28.50;1.00;;;;;;7359495;19;19998;-65
2022/08/24 11:28:49;;;;;;;3.65;1.70;;;28.70;1.00;;;;;;7363199;19;20803;-65
2022/08/24 11:31:28;;;;;;;2.40;1.40;;;28.70;1.00;;;;;;7383278;19;20113;-65
2022/08/24 11:34:06;;;;;;;1.50;1.40;;;28.70;1.00;;;;;;7366479;19;20022;-64
2022/08/24 11:36:38;;;;;;;2.35;1.63;;;28.90;1.00;;;;;;7364679;19;20011;-64
2022/08/24 11:39:21;;;;;;;1.80;1.50;;;29.20;1.00;;;;;;7365900;19;20097;-64
2022/08/24 11:41:58;;;;;;;1.95;1.60;;;29.10;1.00;;;;;;7363207;19;20019;-64
2022/08/24 11:44:41;;;;;;;2.78;1.70;;;28.70;1.00;;;;;;7366693;19;20026;-65
2022/08/24 11:47:39;;;;;;;2.20;1.60;;;28.50;1.00;;;;;;7364964;19;20013;-64
2022/08/24 11:50:23;;;;;;;1.40;1.30;;;28.80;1.00;;;;;;7360749;19;20017;-64
2022/08/24 11:53:00;;;;;;;;;;;29.10;1.00;;;;;;7367839;19;20014;-64
2022/08/24 11:55:38;;;;;;;2.92;1.85;;;28.60;1.00;;;;;;7389354;19;19919;-64
2022/08/24 11:58:40;;;;;;;2.40;2.00;;;28.90;1.00;;;;;;7364030;19;20538;-65
2022/08/24 12:01:20;;;;;;;2.53;1.83;;;28.70;1.00;;;;;;7362756;19;20014;-65
2022/08/24 12:04:17;;;;;;;3.65;1.33;;;28.80;1.00;;;;;;7362968;19;20101;-64
2022/08/24 12:06:56;;;;;;;2.97;1.75;;;28.60;1.00;;;;;;7364414;19;20106;-65
2022/08/24 12:09:44;;;;;;;2.45;1.80;;;28.80;1.00;;;;;;7363732;19;20080;-64
2022/08/24 12:12:22;;;;;;;3.53;1.80;;;28.70;1.00;;;;;;7360287;19;20021;-63
2022/08/24 12:15:01;;;;;;;1.50;1.30;;;28.60;1.00;;;;;;7363946;19;20082;-64
2022/08/24 12:17:38;;;;;;;3.17;1.70;;;28.60;1.00;;;;;;7365524;19;20030;-64
2022/08/24 12:20:22;;;;;;;3.08;1.60;;;28.80;1.00;;;;;;7355944;19;20017;-64
2022/08/24 12:22:53;;;;;;;;;;;29.30;1.00;;;;;;7366692;19;20376;-64
2022/08/24 12:28:07;;;;;;;3.60;1.38;;;28.70;1.00;;;;;;7363993;19;20020;-64
2022/08/24 12:30:40;;;;;;;2.47;1.60;;;28.80;1.00;;;;;;7360093;19;20770;-64
2022/08/24 12:33:14;;;;;;;2.88;1.25;;;29.10;1.00;;;;;;7366682;19;20003;-64
2022/08/24 12:35:49;;;;;;;3.17;1.50;;;29.20;1.00;;;;;;7364785;19;20014;-64
2022/08/24 12:38:26;;;;;;;1.95;1.50;;;29.20;1.00;;;;;;7365192;19;20006;-64
2022/08/24 12:41:01;;;;;;;2.60;1.50;;;29.40;1.00;;;;;;7359138;19;20537;-63
2022/08/24 12:43:50;;;;;;;2.28;1.42;;;29.30;1.00;;;;;;7364690;19;20019;-64
2022/08/24 12:46:26;;;;;;;4.75;1.45;;;29.30;1.00;;;;;;7386007;19;20035;-65
2022/08/24 12:49:01;;;;;;;3.65;1.40;;;29.50;1.00;;;;;;7363886;19;20348;-64
2022/08/24 12:51:45;;;;;;;2.15;1.30;;;29.40;1.00;;;;;;7360355;19;20014;-65
2022/08/24 12:54:43;;;;;;;1.40;1.30;;;29.30;1.00;;;;;;7365890;19;20006;-64
2022/08/24 12:57:29;;;;;;;5.25;1.42;;;29.70;1.00;;;;;;7364233;19;20017;-64
2022/08/24 13:00:05;;;;;;;2.30;1.40;;;29.60;1.00;;;;;;7358422;19;20022;-64
2022/08/24 13:02:41;;;;;;;2.35;1.33;;;29.80;1.00;;;;;;7366469;19;20096;-65
2022/08/24 13:05:19;;;;;;;2.00;1.50;;;30.00;1.00;;;;;;7366335;19;20017;-64
2022/08/24 13:07:52;;;;;;;2.05;1.50;;;29.80;1.00;;;;;;7360904;19;20073;-64
2022/08/24 13:10:41;;;;;;;1.63;1.40;;;29.90;1.00;;;;;;7381757;19;20018;-64
2022/08/24 13:13:16;;;;;;;2.38;1.60;;;29.90;1.00;;;;;;7364728;19;20016;-64
2022/08/24 13:16:01;;;;;;;1.65;1.50;;;30.00;1.00;;;;;;7361717;19;20017;-65
2022/08/24 13:19:13;;;;;;;2.63;1.40;;;30.10;1.00;;;;;;7362600;19;20014;-63
2022/08/24 13:21:57;;;;;;;2.38;1.50;;;29.70;1.00;;;;;;7359186;19;20066;-64
2022/08/24 13:25:01;;;;;;;1.75;1.42;;;29.70;1.00;;;;;;7363719;19;20010;-64
2022/08/24 13:28:03;;;;;;;1.43;1.20;;;29.60;1.00;;;;;;7363070;19;20021;-64
2022/08/24 13:30:59;;;;;;;1.55;1.13;;;30.00;1.00;;;;;;7356417;19;20242;-64
2022/08/24 13:33:33;;;;;;;2.17;1.38;;;29.90;1.00;;;;;;7362935;19;20010;-65
2022/08/24 13:36:23;;;;;;;3.10;1.48;;;30.10;1.00;;;;;;7363164;19;20006;-64
2022/08/24 13:39:07;;;;;;;2.42;1.70;;;29.80;1.00;;;;;;7360880;19;20017;-65
2022/08/24 13:42:04;;;;;;;3.72;1.38;;;30.00;1.00;;;;;;7357500;19;20014;-65
2022/08/24 13:45:01;;;;;;;2.05;1.50;;;29.60;1.00;;;;;;7361236;19;20157;-63
2022/08/24 13:47:46;;;;;;;1.67;1.58;;;29.70;1.00;;;;;;7361612;19;20013;-65
2022/08/24 13:50:32;;;;;;;1.75;1.40;;;30.20;1.00;;;;;;7359295;19;20079;-64
2022/08/24 13:53:33;;;;;;;1.95;1.40;;;30.20;1.00;;;;;;7359218;19;20014;-64
2022/08/24 13:56:26;;;;;;;3.15;1.55;;;29.90;1.00;;;;;;7362448;19;20010;-63
2022/08/24 13:59:09;;;;;;;1.45;1.35;;;30.00;1.00;;;;;;7361431;19;20142;-66
2022/08/24 14:02:00;;;;;;;2.13;1.50;;;29.90;1.00;;;;;;7378063;19;20022;-65